sensor_id;sensor_type;location;lat;lon;timestamp;P1;durP1;ratioP1;P2;durP2;ratioP2
6332;SDS011;3199;49.102;8.856;2022-07-06T00:01:16;1.92;;;1.77;;
6332;SDS011;3199;49.102;8.856;2022-07-06T00:03:42;3.08;;;2.13;;
6332;SDS011;3199;49.102;8.856;2022-07-06T00:06:08;2.85;;;2.00;;
6332;SDS011;3199;49.102;8.856;2022-07-06T00:08:33;3.38;;;2.00;;
6332;SDS011;3199;49.102;8.856;2022-07-06T00:10:59;3.53;;;1.92;;
6332;SDS011;3199;49.102;8.856;2022-07-06T00:13:25;2.80;;;1.80;;
6332;SDS011;3199;49.102;8.856;2022-07-06T00:15:51;2.33;;;1.92;;
6332;SDS011;3199;49.102;8.856;2022-07-06T00:18:16;2.00;;;1.88;;
6332;SDS011;3199;49.102;8.856;2022-07-06T00:20:42;2.83;;;2.10;;
6332;SDS011;3199;49.102;8.856;2022-07-06T00:23:07;3.17;;;1.73;;
6332;SDS011;3199;49.102;8.856;2022-07-06T00:25:33;2.03;;;1.92;;
6332;SDS011;3199;49.102;8.856;2022-07-06T00:27:59;2.88;;;2.00;;
6332;SDS011;3199;49.102;8.856;2022-07-06T00:30:24;3.53;;;2.10;;
6332;SDS011;3199;49.102;8.856;2022-07-06T00:32:50;2.00;;;1.90;;
6332;SDS011;3199;49.102;8.856;2022-07-06T00:35:15;2.88;;;2.05;;
6332;SDS011;3199;49.102;8.856;2022-07-06T00:37:41;3.55;;;2.03;;
6332;SDS011;3199;49.102;8.856;2022-07-06T00:40:06;2.42;;;1.80;;
6332;SDS011;3199;49.102;8.856;2022-07-06T00:42:42;2.15;;;1.95;;
6332;SDS011;3199;49.102;8.856;2022-07-06T00:45:09;3.20;;;2.03;;
6332;SDS011;3199;49.102;8.856;2022-07-06T00:47:36;3.90;;;2.10;;
6332;SDS011;3199;49.102;8.856;2022-07-06T00:50:04;2.35;;;2.15;;
6332;SDS011;3199;49.102;8.856;2022-07-06T00:52:39;2.90;;;2.13;;
6332;SDS011;3199;49.102;8.856;2022-07-06T00:55:06;2.55;;;2.05;;
6332;SDS011;3199;49.102;8.856;2022-07-06T00:57:32;2.30;;;2.10;;
6332;SDS011;3199;49.102;8.856;2022-07-06T00:59:58;3.17;;;2.15;;
6332;SDS011;3199;49.102;8.856;2022-07-06T01:02:24;3.35;;;2.20;;
6332;SDS011;3199;49.102;8.856;2022-07-06T01:04:49;2.47;;;2.00;;
6332;SDS011;3199;49.102;8.856;2022-07-06T01:07:15;2.30;;;2.10;;
6332;SDS011;3199;49.102;8.856;2022-07-06T01:09:41;2.30;;;2.10;;
6332;SDS011;3199;49.102;8.856;2022-07-06T01:12:07;2.30;;;2.10;;
6332;SDS011;3199;49.102;8.856;2022-07-06T01:14:33;3.22;;;1.92;;
6332;SDS011;3199;49.102;8.856;2022-07-06T01:17:00;4.95;;;1.92;;
6332;SDS011;3199;49.102;8.856;2022-07-06T01:19:26;3.75;;;2.05;;
6332;SDS011;3199;49.102;8.856;2022-07-06T01:21:51;2.33;;;2.10;;
6332;SDS011;3199;49.102;8.856;2022-07-06T01:24:17;2.42;;;1.98;;
6332;SDS011;3199;49.102;8.856;2022-07-06T01:26:42;2.55;;;2.08;;
6332;SDS011;3199;49.102;8.856;2022-07-06T01:29:08;6.22;;;2.90;;
6332;SDS011;3199;49.102;8.856;2022-07-06T01:31:34;2.92;;;2.10;;
6332;SDS011;3199;49.102;8.856;2022-07-06T01:33:59;2.60;;;2.30;;
6332;SDS011;3199;49.102;8.856;2022-07-06T01:36:25;2.40;;;2.20;;
6332;SDS011;3199;49.102;8.856;2022-07-06T01:41:17;3.08;;;2.20;;
6332;SDS011;3199;49.102;8.856;2022-07-06T01:43:44;2.30;;;2.10;;
6332;SDS011;3199;49.102;8.856;2022-07-06T01:46:10;2.35;;;1.77;;
6332;SDS011;3199;49.102;8.856;2022-07-06T01:48:36;2.35;;;2.00;;
6332;SDS011;3199;49.102;8.856;2022-07-06T01:51:03;2.50;;;2.20;;
6332;SDS011;3199;49.102;8.856;2022-07-06T01:53:29;3.58;;;1.98;;
6332;SDS011;3199;49.102;8.856;2022-07-06T01:55:55;3.53;;;2.30;;
6332;SDS011;3199;49.102;8.856;2022-07-06T01:58:20;2.10;;;1.90;;
6332;SDS011;3199;49.102;8.856;2022-07-06T02:00:46;2.53;;;2.33;;
6332;SDS011;3199;49.102;8.856;2022-07-06T02:03:11;3.50;;;2.25;;
6332;SDS011;3199;49.102;8.856;2022-07-06T02:05:37;2.60;;;2.30;;
6332;SDS011;3199;49.102;8.856;2022-07-06T02:08:02;2.58;;;2.22;;
6332;SDS011;3199;49.102;8.856;2022-07-06T02:10:28;3.15;;;2.40;;
6332;SDS011;3199;49.102;8.856;2022-07-06T02:12:53;3.13;;;2.30;;
6332;SDS011;3199;49.102;8.856;2022-07-06T02:15:19;2.08;;;1.95;;
6332;SDS011;3199;49.102;8.856;2022-07-06T02:17:44;4.50;;;2.25;;
6332;SDS011;3199;49.102;8.856;2022-07-06T02:20:10;2.30;;;2.10;;
6332;SDS011;3199;49.102;8.856;2022-07-06T02:22:36;2.80;;;2.60;;
6332;SDS011;3199;49.102;8.856;2022-07-06T02:25:01;6.72;;;3.30;;
6332;SDS011;3199;49.102;8.856;2022-07-06T02:27:27;3.03;;;2.58;;
6332;SDS011;3199;49.102;8.856;2022-07-06T02:29:53;2.80;;;2.30;;
6332;SDS011;3199;49.102;8.856;2022-07-06T02:32:18;4.20;;;2.40;;
6332;SDS011;3199;49.102;8.856;2022-07-06T02:34:44;3.70;;;2.38;;
6332;SDS011;3199;49.102;8.856;2022-07-06T02:37:09;2.97;;;2.20;;
6332;SDS011;3199;49.102;8.856;2022-07-06T02:39:35;3.65;;;2.60;;
6332;SDS011;3199;49.102;8.856;2022-07-06T02:42:01;2.47;;;2.22;;
6332;SDS011;3199;49.102;8.856;2022-07-06T02:44:26;3.55;;;2.67;;
6332;SDS011;3199;49.102;8.856;2022-07-06T02:46:52;3.47;;;2.63;;
6332;SDS011;3199;49.102;8.856;2022-07-06T02:49:18;3.05;;;2.78;;
6332;SDS011;3199;49.102;8.856;2022-07-06T02:51:43;4.47;;;2.53;;
6332;SDS011;3199;49.102;8.856;2022-07-06T02:54:09;3.20;;;2.42;;
6332;SDS011;3199;49.102;8.856;2022-07-06T02:56:34;4.22;;;3.08;;
6332;SDS011;3199;49.102;8.856;2022-07-06T02:59:00;4.25;;;2.67;;
6332;SDS011;3199;49.102;8.856;2022-07-06T03:01:25;7.45;;;3.13;;
6332;SDS011;3199;49.102;8.856;2022-07-06T03:03:51;4.07;;;2.70;;
6332;SDS011;3199;49.102;8.856;2022-07-06T03:06:16;4.50;;;2.75;;
6332;SDS011;3199;49.102;8.856;2022-07-06T03:08:42;3.15;;;2.67;;
6332;SDS011;3199;49.102;8.856;2022-07-06T03:11:07;5.32;;;2.78;;
6332;SDS011;3199;49.102;8.856;2022-07-06T03:13:33;3.75;;;2.58;;
6332;SDS011;3199;49.102;8.856;2022-07-06T03:15:59;4.90;;;3.03;;
6332;SDS011;3199;49.102;8.856;2022-07-06T03:18:25;4.35;;;3.10;;
6332;SDS011;3199;49.102;8.856;2022-07-06T03:20:50;3.92;;;2.88;;
6332;SDS011;3199;49.102;8.856;2022-07-06T03:23:16;2.63;;;2.42;;
6332;SDS011;3199;49.102;8.856;2022-07-06T03:25:41;2.65;;;2.42;;
6332;SDS011;3199;49.102;8.856;2022-07-06T03:28:07;3.65;;;3.00;;
6332;SDS011;3199;49.102;8.856;2022-07-06T03:30:32;2.88;;;2.50;;
6332;SDS011;3199;49.102;8.856;2022-07-06T03:32:58;4.47;;;2.80;;
6332;SDS011;3199;49.102;8.856;2022-07-06T03:35:24;3.95;;;2.72;;
6332;SDS011;3199;49.102;8.856;2022-07-06T03:37:49;4.45;;;3.08;;
6332;SDS011;3199;49.102;8.856;2022-07-06T03:40:15;5.15;;;2.88;;
6332;SDS011;3199;49.102;8.856;2022-07-06T03:42:40;3.90;;;2.70;;
6332;SDS011;3199;49.102;8.856;2022-07-06T03:45:06;5.75;;;3.10;;
6332;SDS011;3199;49.102;8.856;2022-07-06T03:47:32;5.18;;;3.13;;
6332;SDS011;3199;49.102;8.856;2022-07-06T03:49:58;3.58;;;2.80;;
6332;SDS011;3199;49.102;8.856;2022-07-06T03:52:24;5.90;;;3.10;;
6332;SDS011;3199;49.102;8.856;2022-07-06T03:54:49;4.50;;;3.05;;
6332;SDS011;3199;49.102;8.856;2022-07-06T03:57:15;3.45;;;2.90;;
6332;SDS011;3199;49.102;8.856;2022-07-06T03:59:41;8.98;;;2.90;;
6332;SDS011;3199;49.102;8.856;2022-07-06T04:02:07;3.17;;;2.92;;
6332;SDS011;3199;49.102;8.856;2022-07-06T04:04:35;3.70;;;2.92;;
6332;SDS011;3199;49.102;8.856;2022-07-06T04:07:01;8.90;;;2.92;;
6332;SDS011;3199;49.102;8.856;2022-07-06T04:09:26;4.70;;;3.05;;
6332;SDS011;3199;49.102;8.856;2022-07-06T04:11:52;5.13;;;3.20;;
6332;SDS011;3199;49.102;8.856;2022-07-06T04:14:18;5.40;;;3.10;;
6332;SDS011;3199;49.102;8.856;2022-07-06T04:16:43;3.28;;;2.95;;
6332;SDS011;3199;49.102;8.856;2022-07-06T04:19:09;3.20;;;2.92;;
6332;SDS011;3199;49.102;8.856;2022-07-06T04:21:34;3.45;;;2.92;;
6332;SDS011;3199;49.102;8.856;2022-07-06T04:24:00;5.18;;;2.97;;
6332;SDS011;3199;49.102;8.856;2022-07-06T04:26:26;3.78;;;2.63;;
6332;SDS011;3199;49.102;8.856;2022-07-06T04:28:51;5.43;;;3.28;;
6332;SDS011;3199;49.102;8.856;2022-07-06T04:31:17;4.60;;;3.17;;
6332;SDS011;3199;49.102;8.856;2022-07-06T04:33:42;5.97;;;2.70;;
6332;SDS011;3199;49.102;8.856;2022-07-06T04:36:08;3.45;;;2.47;;
6332;SDS011;3199;49.102;8.856;2022-07-06T04:38:34;4.18;;;2.85;;
6332;SDS011;3199;49.102;8.856;2022-07-06T04:41:00;3.15;;;2.72;;
6332;SDS011;3199;49.102;8.856;2022-07-06T04:43:26;2.85;;;2.65;;
6332;SDS011;3199;49.102;8.856;2022-07-06T04:45:51;4.38;;;2.53;;
6332;SDS011;3199;49.102;8.856;2022-07-06T04:48:17;2.70;;;2.50;;
6332;SDS011;3199;49.102;8.856;2022-07-06T04:50:43;4.07;;;2.72;;
6332;SDS011;3199;49.102;8.856;2022-07-06T04:53:08;3.22;;;2.70;;
6332;SDS011;3199;49.102;8.856;2022-07-06T04:55:34;3.00;;;2.70;;
6332;SDS011;3199;49.102;8.856;2022-07-06T04:57:59;3.17;;;2.33;;
6332;SDS011;3199;49.102;8.856;2022-07-06T05:00:25;3.92;;;2.80;;
6332;SDS011;3199;49.102;8.856;2022-07-06T05:02:50;3.45;;;2.50;;
6332;SDS011;3199;49.102;8.856;2022-07-06T05:05:16;2.97;;;2.67;;
6332;SDS011;3199;49.102;8.856;2022-07-06T05:07:42;3.95;;;2.60;;
6332;SDS011;3199;49.102;8.856;2022-07-06T05:10:08;3.72;;;2.13;;
6332;SDS011;3199;49.102;8.856;2022-07-06T05:12:35;4.35;;;2.53;;
6332;SDS011;3199;49.102;8.856;2022-07-06T05:15:00;5.15;;;2.30;;
6332;SDS011;3199;49.102;8.856;2022-07-06T05:17:26;2.50;;;2.30;;
6332;SDS011;3199;49.102;8.856;2022-07-06T05:19:52;4.32;;;2.40;;
6332;SDS011;3199;49.102;8.856;2022-07-06T05:22:17;3.65;;;2.45;;
6332;SDS011;3199;49.102;8.856;2022-07-06T05:24:43;5.63;;;2.05;;
6332;SDS011;3199;49.102;8.856;2022-07-06T05:27:09;3.17;;;2.80;;
6332;SDS011;3199;49.102;8.856;2022-07-06T05:29:34;5.10;;;2.75;;
6332;SDS011;3199;49.102;8.856;2022-07-06T05:32:00;4.15;;;2.30;;
6332;SDS011;3199;49.102;8.856;2022-07-06T05:34:26;5.68;;;2.13;;
6332;SDS011;3199;49.102;8.856;2022-07-06T05:36:51;3.53;;;2.20;;
6332;SDS011;3199;49.102;8.856;2022-07-06T05:39:17;2.85;;;2.20;;
6332;SDS011;3199;49.102;8.856;2022-07-06T05:41:44;2.78;;;2.10;;
6332;SDS011;3199;49.102;8.856;2022-07-06T05:44:11;5.22;;;2.00;;
6332;SDS011;3199;49.102;8.856;2022-07-06T05:46:36;2.17;;;1.98;;
6332;SDS011;3199;49.102;8.856;2022-07-06T05:49:02;4.28;;;2.20;;
6332;SDS011;3199;49.102;8.856;2022-07-06T05:51:46;2.78;;;2.13;;
6332;SDS011;3199;49.102;8.856;2022-07-06T05:54:11;4.20;;;2.40;;
6332;SDS011;3199;49.102;8.856;2022-07-06T05:56:37;2.15;;;1.83;;
6332;SDS011;3199;49.102;8.856;2022-07-06T05:59:02;3.83;;;1.88;;
6332;SDS011;3199;49.102;8.856;2022-07-06T06:01:28;4.63;;;2.25;;
6332;SDS011;3199;49.102;8.856;2022-07-06T06:03:53;4.78;;;1.90;;
6332;SDS011;3199;49.102;8.856;2022-07-06T06:06:19;3.78;;;2.08;;
6332;SDS011;3199;49.102;8.856;2022-07-06T06:08:44;5.07;;;2.00;;
6332;SDS011;3199;49.102;8.856;2022-07-06T06:11:10;2.13;;;1.70;;
6332;SDS011;3199;49.102;8.856;2022-07-06T06:13:35;2.70;;;1.70;;
6332;SDS011;3199;49.102;8.856;2022-07-06T06:16:01;1.95;;;1.77;;
6332;SDS011;3199;49.102;8.856;2022-07-06T06:18:26;2.35;;;1.65;;
6332;SDS011;3199;49.102;8.856;2022-07-06T06:20:52;2.85;;;1.90;;
6332;SDS011;3199;49.102;8.856;2022-07-06T06:23:18;3.85;;;1.65;;
6332;SDS011;3199;49.102;8.856;2022-07-06T06:25:43;1.85;;;1.67;;
6332;SDS011;3199;49.102;8.856;2022-07-06T06:28:10;3.58;;;2.08;;
6332;SDS011;3199;49.102;8.856;2022-07-06T06:30:36;3.53;;;1.85;;
6332;SDS011;3199;49.102;8.856;2022-07-06T06:35:32;3.28;;;1.95;;
6332;SDS011;3199;49.102;8.856;2022-07-06T06:37:58;6.18;;;1.55;;
6332;SDS011;3199;49.102;8.856;2022-07-06T06:40:23;4.10;;;2.60;;
6332;SDS011;3199;49.102;8.856;2022-07-06T06:42:49;5.13;;;2.00;;
6332;SDS011;3199;49.102;8.856;2022-07-06T06:45:14;1.75;;;1.40;;
6332;SDS011;3199;49.102;8.856;2022-07-06T06:47:40;2.63;;;1.30;;
6332;SDS011;3199;49.102;8.856;2022-07-06T06:50:06;3.05;;;1.80;;
6332;SDS011;3199;49.102;8.856;2022-07-06T06:52:31;2.35;;;1.30;;
6332;SDS011;3199;49.102;8.856;2022-07-06T06:54:57;2.40;;;1.50;;
6332;SDS011;3199;49.102;8.856;2022-07-06T06:57:23;3.85;;;1.40;;
6332;SDS011;3199;49.102;8.856;2022-07-06T06:59:48;3.00;;;1.38;;
6332;SDS011;3199;49.102;8.856;2022-07-06T07:02:14;2.85;;;1.70;;
6332;SDS011;3199;49.102;8.856;2022-07-06T07:04:39;2.85;;;1.52;;
6332;SDS011;3199;49.102;8.856;2022-07-06T07:07:05;2.53;;;1.70;;
6332;SDS011;3199;49.102;8.856;2022-07-06T07:09:30;5.03;;;1.98;;
6332;SDS011;3199;49.102;8.856;2022-07-06T07:11:56;6.53;;;1.90;;
6332;SDS011;3199;49.102;8.856;2022-07-06T07:14:22;5.25;;;1.70;;
6332;SDS011;3199;49.102;8.856;2022-07-06T07:16:48;2.40;;;1.30;;
6332;SDS011;3199;49.102;8.856;2022-07-06T07:19:13;4.03;;;1.45;;
6332;SDS011;3199;49.102;8.856;2022-07-06T07:21:39;3.30;;;1.50;;
6332;SDS011;3199;49.102;8.856;2022-07-06T07:24:05;3.15;;;1.60;;
6332;SDS011;3199;49.102;8.856;2022-07-06T07:26:32;2.72;;;1.50;;
6332;SDS011;3199;49.102;8.856;2022-07-06T07:28:57;5.53;;;1.60;;
6332;SDS011;3199;49.102;8.856;2022-07-06T07:31:23;2.97;;;1.20;;
6332;SDS011;3199;49.102;8.856;2022-07-06T07:33:48;1.65;;;1.45;;
6332;SDS011;3199;49.102;8.856;2022-07-06T07:36:14;3.80;;;1.50;;
6332;SDS011;3199;49.102;8.856;2022-07-06T07:38:40;4.07;;;1.60;;
6332;SDS011;3199;49.102;8.856;2022-07-06T07:41:05;3.95;;;1.65;;
6332;SDS011;3199;49.102;8.856;2022-07-06T07:43:31;5.57;;;1.58;;
6332;SDS011;3199;49.102;8.856;2022-07-06T07:45:56;5.47;;;1.73;;
6332;SDS011;3199;49.102;8.856;2022-07-06T07:48:22;2.28;;;1.42;;
6332;SDS011;3199;49.102;8.856;2022-07-06T07:50:47;2.78;;;1.70;;
6332;SDS011;3199;49.102;8.856;2022-07-06T07:53:13;1.75;;;1.60;;
6332;SDS011;3199;49.102;8.856;2022-07-06T07:55:38;3.88;;;1.50;;
6332;SDS011;3199;49.102;8.856;2022-07-06T07:58:04;4.57;;;1.48;;
6332;SDS011;3199;49.102;8.856;2022-07-06T08:00:30;9.13;;;3.50;;
6332;SDS011;3199;49.102;8.856;2022-07-06T08:02:55;3.13;;;1.90;;
6332;SDS011;3199;49.102;8.856;2022-07-06T08:05:21;4.30;;;1.48;;
6332;SDS011;3199;49.102;8.856;2022-07-06T08:07:46;1.60;;;1.50;;
6332;SDS011;3199;49.102;8.856;2022-07-06T08:10:12;6.88;;;1.80;;
6332;SDS011;3199;49.102;8.856;2022-07-06T08:12:38;3.15;;;1.70;;
6332;SDS011;3199;49.102;8.856;2022-07-06T08:15:04;4.82;;;1.80;;
6332;SDS011;3199;49.102;8.856;2022-07-06T08:17:30;2.35;;;1.67;;
6332;SDS011;3199;49.102;8.856;2022-07-06T08:19:55;2.63;;;1.60;;
6332;SDS011;3199;49.102;8.856;2022-07-06T08:22:21;1.95;;;1.70;;
6332;SDS011;3199;49.102;8.856;2022-07-06T08:24:47;5.13;;;1.92;;
6332;SDS011;3199;49.102;8.856;2022-07-06T08:27:13;2.05;;;1.55;;
6332;SDS011;3199;49.102;8.856;2022-07-06T08:29:38;5.47;;;3.08;;
6332;SDS011;3199;49.102;8.856;2022-07-06T08:32:04;6.15;;;2.70;;
6332;SDS011;3199;49.102;8.856;2022-07-06T08:34:30;8.43;;;4.40;;
6332;SDS011;3199;49.102;8.856;2022-07-06T08:36:55;5.03;;;2.42;;
6332;SDS011;3199;49.102;8.856;2022-07-06T08:39:21;5.22;;;2.33;;
6332;SDS011;3199;49.102;8.856;2022-07-06T08:41:47;4.35;;;1.77;;
6332;SDS011;3199;49.102;8.856;2022-07-06T08:44:14;4.43;;;1.67;;
6332;SDS011;3199;49.102;8.856;2022-07-06T08:46:40;4.38;;;1.73;;
6332;SDS011;3199;49.102;8.856;2022-07-06T08:49:07;2.58;;;1.50;;
6332;SDS011;3199;49.102;8.856;2022-07-06T08:51:36;3.70;;;1.90;;
6332;SDS011;3199;49.102;8.856;2022-07-06T08:54:02;3.50;;;1.60;;
6332;SDS011;3199;49.102;8.856;2022-07-06T08:56:29;5.38;;;2.10;;
6332;SDS011;3199;49.102;8.856;2022-07-06T08:58:55;2.90;;;1.70;;
6332;SDS011;3199;49.102;8.856;2022-07-06T09:01:21;5.88;;;2.10;;
6332;SDS011;3199;49.102;8.856;2022-07-06T09:03:48;3.53;;;1.63;;
6332;SDS011;3199;49.102;8.856;2022-07-06T09:06:19;12.18;;;5.82;;
6332;SDS011;3199;49.102;8.856;2022-07-06T09:08:49;2.72;;;1.90;;
6332;SDS011;3199;49.102;8.856;2022-07-06T09:11:17;3.17;;;1.90;;
6332;SDS011;3199;49.102;8.856;2022-07-06T09:13:43;4.30;;;2.35;;
6332;SDS011;3199;49.102;8.856;2022-07-06T09:16:09;3.58;;;1.83;;
6332;SDS011;3199;49.102;8.856;2022-07-06T09:18:39;5.10;;;1.80;;
6332;SDS011;3199;49.102;8.856;2022-07-06T09:21:07;3.08;;;1.80;;
6332;SDS011;3199;49.102;8.856;2022-07-06T09:23:33;3.42;;;2.10;;
6332;SDS011;3199;49.102;8.856;2022-07-06T09:26:01;2.20;;;1.60;;
6332;SDS011;3199;49.102;8.856;2022-07-06T09:28:44;4.32;;;1.83;;
6332;SDS011;3199;49.102;8.856;2022-07-06T09:31:10;5.18;;;1.92;;
6332;SDS011;3199;49.102;8.856;2022-07-06T09:33:36;2.90;;;2.22;;
6332;SDS011;3199;49.102;8.856;2022-07-06T09:36:02;3.58;;;2.03;;
6332;SDS011;3199;49.102;8.856;2022-07-06T09:38:30;3.95;;;1.90;;
6332;SDS011;3199;49.102;8.856;2022-07-06T09:40:56;3.63;;;1.70;;
6332;SDS011;3199;49.102;8.856;2022-07-06T09:43:23;5.30;;;2.20;;
6332;SDS011;3199;49.102;8.856;2022-07-06T09:45:50;5.90;;;2.30;;
6332;SDS011;3199;49.102;8.856;2022-07-06T09:48:17;8.95;;;2.25;;
6332;SDS011;3199;49.102;8.856;2022-07-06T09:50:47;2.95;;;2.10;;
6332;SDS011;3199;49.102;8.856;2022-07-06T09:53:19;5.97;;;2.17;;
6332;SDS011;3199;49.102;8.856;2022-07-06T09:55:46;3.42;;;1.90;;
6332;SDS011;3199;49.102;8.856;2022-07-06T09:58:13;3.72;;;2.25;;
6332;SDS011;3199;49.102;8.856;2022-07-06T10:00:40;3.70;;;2.00;;
6332;SDS011;3199;49.102;8.856;2022-07-06T10:03:06;8.88;;;2.50;;
6332;SDS011;3199;49.102;8.856;2022-07-06T10:05:33;2.72;;;2.30;;
6332;SDS011;3199;49.102;8.856;2022-07-06T10:08:02;5.22;;;2.13;;
6332;SDS011;3199;49.102;8.856;2022-07-06T10:10:30;2.97;;;1.92;;
6332;SDS011;3199;49.102;8.856;2022-07-06T10:12:57;4.45;;;2.50;;
6332;SDS011;3199;49.102;8.856;2022-07-06T10:15:25;2.97;;;2.47;;
6332;SDS011;3199;49.102;8.856;2022-07-06T10:17:52;4.50;;;2.10;;
6332;SDS011;3199;49.102;8.856;2022-07-06T10:20:18;5.00;;;2.33;;
6332;SDS011;3199;49.102;8.856;2022-07-06T10:22:46;9.43;;;2.40;;
6332;SDS011;3199;49.102;8.856;2022-07-06T10:25:17;5.38;;;2.40;;
6332;SDS011;3199;49.102;8.856;2022-07-06T10:27:47;2.78;;;2.20;;
6332;SDS011;3199;49.102;8.856;2022-07-06T10:30:13;4.20;;;2.30;;
6332;SDS011;3199;49.102;8.856;2022-07-06T10:32:40;6.35;;;2.20;;
6332;SDS011;3199;49.102;8.856;2022-07-06T10:35:08;6.43;;;2.40;;
6332;SDS011;3199;49.102;8.856;2022-07-06T10:37:34;3.90;;;2.22;;
6332;SDS011;3199;49.102;8.856;2022-07-06T10:40:00;4.28;;;2.35;;
6332;SDS011;3199;49.102;8.856;2022-07-06T10:42:45;5.30;;;2.30;;
6332;SDS011;3199;49.102;8.856;2022-07-06T10:45:21;3.30;;;2.05;;
6332;SDS011;3199;49.102;8.856;2022-07-06T10:50:37;7.80;;;2.42;;
6332;SDS011;3199;49.102;8.856;2022-07-06T10:53:04;3.42;;;2.10;;
6332;SDS011;3199;49.102;8.856;2022-07-06T10:55:36;4.95;;;2.22;;
6332;SDS011;3199;49.102;8.856;2022-07-06T10:58:03;3.58;;;2.28;;
6332;SDS011;3199;49.102;8.856;2022-07-06T11:03:32;5.15;;;2.15;;
6332;SDS011;3199;49.102;8.856;2022-07-06T11:05:59;4.22;;;2.30;;
6332;SDS011;3199;49.102;8.856;2022-07-06T11:11:10;4.53;;;1.80;;
6332;SDS011;3199;49.102;8.856;2022-07-06T11:13:47;2.35;;;1.83;;
6332;SDS011;3199;49.102;8.856;2022-07-06T11:16:17;4.20;;;2.30;;
6332;SDS011;3199;49.102;8.856;2022-07-06T11:18:58;3.85;;;2.28;;
6332;SDS011;3199;49.102;8.856;2022-07-06T11:21:47;5.82;;;1.95;;
6332;SDS011;3199;49.102;8.856;2022-07-06T11:24:17;5.72;;;1.92;;
6332;SDS011;3199;49.102;8.856;2022-07-06T11:26:48;3.78;;;1.80;;
6332;SDS011;3199;49.102;8.856;2022-07-06T11:29:15;1.85;;;1.52;;
6332;SDS011;3199;49.102;8.856;2022-07-06T11:31:44;3.83;;;1.50;;
6332;SDS011;3199;49.102;8.856;2022-07-06T11:34:12;2.40;;;1.90;;
6332;SDS011;3199;49.102;8.856;2022-07-06T11:36:42;3.85;;;1.70;;
6332;SDS011;3199;49.102;8.856;2022-07-06T11:39:08;5.60;;;1.90;;
6332;SDS011;3199;49.102;8.856;2022-07-06T11:41:34;2.20;;;1.63;;
6332;SDS011;3199;49.102;8.856;2022-07-06T11:44:00;2.53;;;1.63;;
6332;SDS011;3199;49.102;8.856;2022-07-06T11:48:53;2.40;;;1.60;;
6332;SDS011;3199;49.102;8.856;2022-07-06T11:51:24;1.80;;;1.58;;
6332;SDS011;3199;49.102;8.856;2022-07-06T11:53:53;5.20;;;1.70;;
6332;SDS011;3199;49.102;8.856;2022-07-06T11:56:21;2.55;;;1.73;;
6332;SDS011;3199;49.102;8.856;2022-07-06T11:58:50;3.13;;;1.40;;
6332;SDS011;3199;49.102;8.856;2022-07-06T12:01:17;4.80;;;2.15;;
6332;SDS011;3199;49.102;8.856;2022-07-06T12:03:43;5.38;;;1.60;;
6332;SDS011;3199;49.102;8.856;2022-07-06T12:06:13;2.55;;;1.55;;
6332;SDS011;3199;49.102;8.856;2022-07-06T12:08:41;4.07;;;1.60;;
6332;SDS011;3199;49.102;8.856;2022-07-06T12:11:21;1.45;;;1.33;;
6332;SDS011;3199;49.102;8.856;2022-07-06T12:13:54;1.60;;;1.42;;
6332;SDS011;3199;49.102;8.856;2022-07-06T12:16:35;2.55;;;1.67;;
6332;SDS011;3199;49.102;8.856;2022-07-06T12:19:04;5.32;;;1.40;;
6332;SDS011;3199;49.102;8.856;2022-07-06T12:21:31;2.88;;;1.50;;
6332;SDS011;3199;49.102;8.856;2022-07-06T12:23:58;1.40;;;1.25;;
6332;SDS011;3199;49.102;8.856;2022-07-06T12:26:25;3.45;;;1.55;;
6332;SDS011;3199;49.102;8.856;2022-07-06T12:29:00;1.95;;;1.45;;
6332;SDS011;3199;49.102;8.856;2022-07-06T12:31:38;4.07;;;2.40;;
6332;SDS011;3199;49.102;8.856;2022-07-06T12:34:05;6.95;;;4.00;;
6332;SDS011;3199;49.102;8.856;2022-07-06T12:36:45;4.43;;;2.35;;
6332;SDS011;3199;49.102;8.856;2022-07-06T12:39:12;3.97;;;1.50;;
6332;SDS011;3199;49.102;8.856;2022-07-06T12:44:19;5.60;;;1.80;;
6332;SDS011;3199;49.102;8.856;2022-07-06T12:46:49;1.58;;;1.30;;
6332;SDS011;3199;49.102;8.856;2022-07-06T12:54:18;2.58;;;1.52;;
6332;SDS011;3199;49.102;8.856;2022-07-06T12:56:57;2.80;;;1.50;;
6332;SDS011;3199;49.102;8.856;2022-07-06T12:59:28;2.28;;;1.50;;
6332;SDS011;3199;49.102;8.856;2022-07-06T13:01:55;1.85;;;1.70;;
6332;SDS011;3199;49.102;8.856;2022-07-06T13:04:21;2.50;;;1.42;;
6332;SDS011;3199;49.102;8.856;2022-07-06T13:06:52;2.50;;;1.42;;
6332;SDS011;3199;49.102;8.856;2022-07-06T13:09:18;1.40;;;1.30;;
6332;SDS011;3199;49.102;8.856;2022-07-06T13:11:45;2.85;;;1.60;;
6332;SDS011;3199;49.102;8.856;2022-07-06T13:14:11;3.83;;;1.25;;
6332;SDS011;3199;49.102;8.856;2022-07-06T13:16:37;2.17;;;1.50;;
6332;SDS011;3199;49.102;8.856;2022-07-06T13:19:03;2.53;;;1.30;;
6332;SDS011;3199;49.102;8.856;2022-07-06T13:21:29;3.60;;;1.42;;
6332;SDS011;3199;49.102;8.856;2022-07-06T13:23:54;8.07;;;1.63;;
6332;SDS011;3199;49.102;8.856;2022-07-06T13:26:20;2.97;;;1.70;;
6332;SDS011;3199;49.102;8.856;2022-07-06T13:28:45;2.63;;;1.48;;
6332;SDS011;3199;49.102;8.856;2022-07-06T13:31:11;2.05;;;1.48;;
6332;SDS011;3199;49.102;8.856;2022-07-06T13:33:36;3.10;;;1.40;;
6332;SDS011;3199;49.102;8.856;2022-07-06T13:36:02;2.67;;;1.27;;
6332;SDS011;3199;49.102;8.856;2022-07-06T13:38:28;2.78;;;1.40;;
6332;SDS011;3199;49.102;8.856;2022-07-06T13:40:54;1.92;;;1.25;;
6332;SDS011;3199;49.102;8.856;2022-07-06T13:43:20;2.20;;;1.40;;
6332;SDS011;3199;49.102;8.856;2022-07-06T13:45:45;3.15;;;1.30;;
6332;SDS011;3199;49.102;8.856;2022-07-06T13:48:11;3.83;;;1.40;;
6332;SDS011;3199;49.102;8.856;2022-07-06T13:50:37;1.33;;;1.20;;
6332;SDS011;3199;49.102;8.856;2022-07-06T13:53:03;2.83;;;1.30;;
6332;SDS011;3199;49.102;8.856;2022-07-06T13:55:29;1.92;;;1.35;;
6332;SDS011;3199;49.102;8.856;2022-07-06T13:57:55;2.33;;;1.25;;
6332;SDS011;3199;49.102;8.856;2022-07-06T14:00:21;1.23;;;1.13;;
6332;SDS011;3199;49.102;8.856;2022-07-06T14:02:47;1.60;;;1.40;;
6332;SDS011;3199;49.102;8.856;2022-07-06T14:05:13;2.40;;;1.30;;
6332;SDS011;3199;49.102;8.856;2022-07-06T14:07:38;3.50;;;1.50;;
6332;SDS011;3199;49.102;8.856;2022-07-06T14:10:04;3.92;;;1.35;;
6332;SDS011;3199;49.102;8.856;2022-07-06T14:12:30;1.80;;;1.40;;
6332;SDS011;3199;49.102;8.856;2022-07-06T14:14:55;2.33;;;1.33;;
6332;SDS011;3199;49.102;8.856;2022-07-06T14:17:21;5.82;;;1.33;;
6332;SDS011;3199;49.102;8.856;2022-07-06T14:19:48;3.22;;;1.30;;
6332;SDS011;3199;49.102;8.856;2022-07-06T14:22:15;2.42;;;1.52;;
6332;SDS011;3199;49.102;8.856;2022-07-06T14:24:41;1.92;;;1.40;;
6332;SDS011;3199;49.102;8.856;2022-07-06T14:27:06;2.35;;;1.15;;
6332;SDS011;3199;49.102;8.856;2022-07-06T14:29:32;1.50;;;1.15;;
6332;SDS011;3199;49.102;8.856;2022-07-06T14:31:57;2.60;;;1.25;;
6332;SDS011;3199;49.102;8.856;2022-07-06T14:34:23;1.85;;;1.60;;
6332;SDS011;3199;49.102;8.856;2022-07-06T14:36:49;1.25;;;1.10;;
6332;SDS011;3199;49.102;8.856;2022-07-06T14:39:15;1.73;;;1.00;;
6332;SDS011;3199;49.102;8.856;2022-07-06T14:41:41;1.60;;;1.30;;
6332;SDS011;3199;49.102;8.856;2022-07-06T14:44:06;2.03;;;1.40;;
6332;SDS011;3199;49.102;8.856;2022-07-06T14:46:32;1.13;;;1.13;;
6332;SDS011;3199;49.102;8.856;2022-07-06T14:48:59;4.00;;;1.25;;
6332;SDS011;3199;49.102;8.856;2022-07-06T14:51:25;2.35;;;1.33;;
6332;SDS011;3199;49.102;8.856;2022-07-06T14:53:50;3.03;;;2.05;;
6332;SDS011;3199;49.102;8.856;2022-07-06T14:56:16;2.67;;;1.65;;
6332;SDS011;3199;49.102;8.856;2022-07-06T14:58:41;3.75;;;1.35;;
6332;SDS011;3199;49.102;8.856;2022-07-06T15:01:07;1.50;;;1.40;;
6332;SDS011;3199;49.102;8.856;2022-07-06T15:03:32;2.22;;;1.80;;
6332;SDS011;3199;49.102;8.856;2022-07-06T15:05:58;3.15;;;1.35;;
6332;SDS011;3199;49.102;8.856;2022-07-06T15:08:23;1.90;;;1.27;;
6332;SDS011;3199;49.102;8.856;2022-07-06T15:10:49;4.38;;;1.58;;
6332;SDS011;3199;49.102;8.856;2022-07-06T15:13:14;3.33;;;1.48;;
6332;SDS011;3199;49.102;8.856;2022-07-06T15:15:41;1.65;;;1.40;;
6332;SDS011;3199;49.102;8.856;2022-07-06T15:18:06;1.30;;;1.15;;
6332;SDS011;3199;49.102;8.856;2022-07-06T15:20:32;1.33;;;1.20;;
6332;SDS011;3199;49.102;8.856;2022-07-06T15:22:58;2.17;;;1.20;;
6332;SDS011;3199;49.102;8.856;2022-07-06T15:25:24;3.22;;;1.38;;
6332;SDS011;3199;49.102;8.856;2022-07-06T15:27:50;1.50;;;1.40;;
6332;SDS011;3199;49.102;8.856;2022-07-06T15:30:16;1.38;;;1.27;;
6332;SDS011;3199;49.102;8.856;2022-07-06T15:32:42;1.63;;;1.50;;
6332;SDS011;3199;49.102;8.856;2022-07-06T15:35:08;4.13;;;2.10;;